createdAt,value
2024-01-31T00:02:10.808Z,71.97
2024-01-31T00:04:38.969Z,68.95
2024-01-31T00:07:06.046Z,65.05
2024-01-31T00:09:33.397Z,75.63
2024-01-31T00:12:00.366Z,73.57
2024-01-31T00:14:27.342Z,72.75
2024-01-31T00:16:54.838Z,75.97
2024-01-31T00:19:22.031Z,73.85
2024-01-31T00:21:49.098Z,72.53
2024-01-31T00:24:16.017Z,71.75
2024-01-31T00:26:42.917Z,77.68
2024-01-31T00:29:10.379Z,72.55
2024-01-31T00:31:37.436Z,67.00
2024-01-31T00:34:04.493Z,68.40
2024-01-31T00:36:31.424Z,64.63
2024-01-31T00:39:00.667Z,61.40
2024-01-31T00:41:28.361Z,53.92
2024-01-31T00:43:55.252Z,69.03
2024-01-31T00:46:22.733Z,64.30
2024-01-31T00:48:49.868Z,68.20
2024-01-31T00:51:16.799Z,68.72
2024-01-31T00:53:44.175Z,68.57
2024-01-31T00:56:11.179Z,65.78
2024-01-31T00:58:39.652Z,57.58
2024-01-31T01:01:06.885Z,60.20
2024-01-31T01:03:33.968Z,58.25
2024-01-31T01:06:01.790Z,58.83
2024-01-31T01:08:28.769Z,61.38
2024-01-31T01:10:56.924Z,66.68
2024-01-31T01:13:24.087Z,72.72
2024-01-31T01:15:51.033Z,71.68
2024-01-31T01:18:19.256Z,81.55
2024-01-31T01:20:46.943Z,85.20
2024-01-31T01:23:16.296Z,83.60
2024-01-31T01:25:43.785Z,82.53
2024-01-31T01:28:11.152Z,86.93
2024-01-31T01:30:38.432Z,77.13
2024-01-31T01:33:05.668Z,88.90
2024-01-31T01:35:32.591Z,84.75
2024-01-31T01:37:59.584Z,83.57
2024-01-31T01:40:26.526Z,84.88
2024-01-31T01:42:54.962Z,75.63
2024-01-31T01:45:22.008Z,72.78
2024-01-31T01:47:52.203Z,82.50
2024-01-31T01:50:20.602Z,79.50
2024-01-31T01:52:48.594Z,79.20
2024-01-31T01:55:15.849Z,75.18
2024-01-31T01:57:43.986Z,77.53
2024-01-31T02:00:11.773Z,72.40
2024-01-31T02:02:39.373Z,71.82
2024-01-31T02:05:09.174Z,75.63
2024-01-31T02:07:37.505Z,70.63
2024-01-31T02:10:05.743Z,74.18
2024-01-31T02:12:33.312Z,70.38
2024-01-31T02:15:00.834Z,72.57
2024-01-31T02:17:30.635Z,77.72
2024-01-31T02:19:57.815Z,70.18
2024-01-31T02:22:24.788Z,72.05
2024-01-31T02:24:51.806Z,74.43
2024-01-31T02:27:18.867Z,74.20
2024-01-31T02:29:45.927Z,72.97
2024-01-31T02:32:13.669Z,77.35
2024-01-31T02:34:40.858Z,75.95
2024-01-31T02:37:07.973Z,71.65
2024-01-31T02:39:35.120Z,70.55
2024-01-31T02:42:02.117Z,68.85
2024-01-31T02:44:29.744Z,69.82
2024-01-31T02:46:56.759Z,74.45
2024-01-31T02:49:23.845Z,73.80
2024-01-31T02:51:51.037Z,70.35
2024-01-31T02:54:17.932Z,75.13
2024-01-31T02:56:45.207Z,72.97
2024-01-31T02:59:12.103Z,74.63
2024-01-31T03:01:46.092Z,76.75
2024-01-31T03:04:16.181Z,77.88
2024-01-31T03:06:43.307Z,78.22
2024-01-31T03:09:19.092Z,73.97
2024-01-31T03:11:50.391Z,77.13
2024-01-31T03:14:17.392Z,76.82
2024-01-31T03:16:45.562Z,76.93
2024-01-31T03:19:14.876Z,75.13
2024-01-31T03:21:43.902Z,73.05
2024-01-31T03:24:19.077Z,75.72
2024-01-31T03:26:52.565Z,74.72
2024-01-31T03:29:27.099Z,72.85
2024-01-31T03:31:58.270Z,79.72
2024-01-31T03:34:29.005Z,81.80
2024-01-31T03:36:56.621Z,78.68
2024-01-31T03:39:28.376Z,76.88
2024-01-31T03:42:04.534Z,82.03
2024-01-31T03:44:35.013Z,73.95
2024-01-31T03:47:02.273Z,77.18
2024-01-31T03:49:32.185Z,74.32
2024-01-31T03:52:07.116Z,74.35
2024-01-31T03:54:36.571Z,68.80
2024-01-31T03:57:04.088Z,76.95
2024-01-31T03:59:32.047Z,70.65
2024-01-31T04:02:00.719Z,68.47
2024-01-31T04:04:28.818Z,75.30
2024-01-31T04:06:57.350Z,64.60
2024-01-31T04:09:27.355Z,66.38
2024-01-31T04:11:57.315Z,70.10
2024-01-31T04:14:26.214Z,68.50
2024-01-31T04:16:53.174Z,68.95
2024-01-31T04:19:20.224Z,65.25
2024-01-31T04:21:52.538Z,74.32
2024-01-31T04:24:19.929Z,66.30
2024-01-31T04:26:47.325Z,64.47
2024-01-31T04:29:15.585Z,71.05
2024-01-31T04:31:42.733Z,68.93
2024-01-31T04:34:14.066Z,68.72
2024-01-31T04:36:43.528Z,72.05
2024-01-31T04:39:10.895Z,72.63
2024-01-31T04:41:38.904Z,73.05
2024-01-31T04:44:09.723Z,69.88
2024-01-31T04:46:39.483Z,67.03
2024-01-31T04:49:07.500Z,67.90
2024-01-31T04:51:34.822Z,67.35
2024-01-31T04:54:05.397Z,66.03
2024-01-31T04:56:39.000Z,64.75
2024-01-31T04:59:08.761Z,69.78
2024-01-31T05:01:39.008Z,68.07
2024-01-31T05:04:09.193Z,67.55
2024-01-31T05:06:38.400Z,69.97
2024-01-31T05:09:08.319Z,69.20
2024-01-31T05:11:39.197Z,68.28
2024-01-31T05:14:13.472Z,72.53
2024-01-31T05:16:44.212Z,71.75
2024-01-31T05:19:13.639Z,74.80
2024-01-31T05:22:00.558Z,72.70
2024-01-31T05:24:30.288Z,76.63
2024-01-31T05:27:04.740Z,69.30
2024-01-31T05:29:33.115Z,73.30
2024-01-31T05:32:02.361Z,71.00
2024-01-31T05:34:31.428Z,70.38
2024-01-31T05:37:03.219Z,67.53
2024-01-31T05:39:37.548Z,64.90
2024-01-31T05:42:05.942Z,62.17
2024-01-31T05:44:37.331Z,62.47
2024-01-31T05:47:06.338Z,61.65
2024-01-31T05:49:40.069Z,66.90
2024-01-31T05:52:08.435Z,66.95
2024-01-31T05:54:36.699Z,70.60
2024-01-31T05:57:04.942Z,69.95
2024-01-31T05:59:34.449Z,65.88
2024-01-31T06:02:02.669Z,65.90
2024-01-31T06:04:29.809Z,64.60
2024-01-31T06:06:58.027Z,68.60
2024-01-31T06:09:28.357Z,68.93
2024-01-31T06:11:56.763Z,67.00
2024-01-31T06:14:26.257Z,77.68
2024-01-31T06:16:53.415Z,73.85
2024-01-31T06:19:22.391Z,63.30
2024-01-31T06:21:56.020Z,75.43
2024-01-31T06:24:23.110Z,67.78
2024-01-31T06:26:51.570Z,62.95
2024-01-31T06:29:19.870Z,66.30
2024-01-31T06:31:49.010Z,62.63
2024-01-31T06:34:16.778Z,69.30
2024-01-31T06:36:57.603Z,59.25
2024-01-31T06:39:28.527Z,62.88
2024-01-31T06:41:55.992Z,61.30
2024-01-31T06:44:24.610Z,62.40
2024-01-31T06:46:54.933Z,67.25
2024-01-31T06:49:23.618Z,64.57
2024-01-31T06:51:51.197Z,66.72
2024-01-31T06:54:22.912Z,62.97
2024-01-31T06:56:53.719Z,65.50
2024-01-31T06:59:20.804Z,65.55
2024-01-31T07:01:49.121Z,70.07
2024-01-31T07:04:19.559Z,65.40
2024-01-31T07:09:18.281Z,64.55
2024-01-31T07:11:45.673Z,61.53
2024-01-31T07:14:13.832Z,62.28
2024-01-31T07:16:41.866Z,65.05
2024-01-31T07:19:08.969Z,61.67
2024-01-31T07:21:38.978Z,65.10
2024-01-31T07:24:15.845Z,65.35
2024-01-31T07:27:09.001Z,65.78
2024-01-31T07:29:39.111Z,67.25
2024-01-31T07:32:10.489Z,68.40
2024-01-31T07:34:38.957Z,64.82
2024-01-31T07:37:08.309Z,68.05
2024-01-31T07:39:35.958Z,63.85
2024-01-31T07:42:04.426Z,63.10
2024-01-31T07:44:34.853Z,66.63
2024-01-31T07:47:04.602Z,66.07
2024-01-31T07:49:33.421Z,70.03
2024-01-31T07:52:00.873Z,69.80
2024-01-31T07:54:28.203Z,76.38
2024-01-31T07:56:55.223Z,72.90
2024-01-31T07:59:23.861Z,73.32
2024-01-31T08:01:51.351Z,76.03
2024-01-31T08:04:20.662Z,70.85
2024-01-31T08:06:48.604Z,71.63
2024-01-31T08:09:22.520Z,69.82
2024-01-31T08:11:55.151Z,74.43
2024-01-31T08:14:22.148Z,68.43
2024-01-31T08:16:51.553Z,67.80
2024-01-31T08:19:20.141Z,70.32
2024-01-31T08:21:47.258Z,68.50
2024-01-31T08:24:14.337Z,65.20
2024-01-31T08:26:41.256Z,61.83
2024-01-31T08:29:15.711Z,63.00
2024-01-31T08:31:49.968Z,58.10
2024-01-31T08:34:18.716Z,62.50
2024-01-31T08:36:45.931Z,60.47
2024-01-31T08:39:13.686Z,59.35
2024-01-31T08:41:40.902Z,60.65
2024-01-31T08:44:10.557Z,60.53
2024-01-31T08:46:48.040Z,60.72
2024-01-31T08:49:27.928Z,62.33
2024-01-31T08:51:56.152Z,62.92
2024-01-31T08:54:23.167Z,64.45
2024-01-31T08:56:51.257Z,66.53
2024-01-31T08:59:19.025Z,62.95
2024-01-31T09:01:49.889Z,62.28
2024-01-31T09:04:19.489Z,60.67
2024-01-31T09:06:48.290Z,64.13
2024-01-31T09:09:15.443Z,61.85
2024-01-31T09:11:42.661Z,61.03
2024-01-31T09:14:10.160Z,58.97
2024-01-31T09:16:37.184Z,60.17
2024-01-31T09:19:05.220Z,61.75
2024-01-31T09:21:35.289Z,58.17
2024-01-31T09:24:03.687Z,60.20
2024-01-31T09:26:33.200Z,64.75
2024-01-31T09:29:00.651Z,58.97
2024-01-31T09:31:28.848Z,61.33
2024-01-31T09:33:57.017Z,58.47
2024-01-31T09:36:26.551Z,55.88
2024-01-31T09:38:53.602Z,59.53
2024-01-31T09:41:22.329Z,57.72
2024-01-31T09:43:49.352Z,57.67
2024-01-31T09:46:16.850Z,56.65
2024-01-31T09:48:44.738Z,59.13
2024-01-31T09:51:15.012Z,56.15
2024-01-31T09:53:46.299Z,56.35
2024-01-31T09:56:13.309Z,53.80
2024-01-31T09:58:40.659Z,50.63
2024-01-31T10:01:17.231Z,54.95
2024-01-31T10:03:49.132Z,54.53
2024-01-31T10:06:16.201Z,53.90
2024-01-31T10:08:43.373Z,52.17
2024-01-31T10:11:10.264Z,59.90
2024-01-31T10:13:37.500Z,58.10
2024-01-31T10:16:05.579Z,57.83
2024-01-31T10:18:33.250Z,61.55
2024-01-31T10:21:00.331Z,59.35
2024-01-31T10:23:28.848Z,59.35
2024-01-31T10:25:56.377Z,55.10
2024-01-31T10:28:23.940Z,58.92
2024-01-31T10:30:51.478Z,61.17
2024-01-31T10:33:22.461Z,57.15
2024-01-31T10:36:25.061Z,55.63
2024-01-31T10:38:37.268Z,57.60
2024-01-31T10:41:07.700Z,57.58
2024-01-31T10:43:38.065Z,56.35
2024-01-31T10:46:05.115Z,52.45
2024-01-31T10:48:32.260Z,51.72
2024-01-31T10:51:04.398Z,56.67
2024-01-31T10:53:33.071Z,55.60
2024-01-31T10:56:01.522Z,51.40
2024-01-31T10:58:30.519Z,48.85
2024-01-31T11:00:57.645Z,46.90
2024-01-31T11:03:24.917Z,45.95
2024-01-31T11:05:54.315Z,56.33
2024-01-31T11:08:23.531Z,56.38
2024-01-31T11:10:53.553Z,54.65
2024-01-31T11:13:22.043Z,48.67
2024-01-31T11:15:48.989Z,51.45
2024-01-31T11:18:17.331Z,49.78
2024-01-31T11:20:51.378Z,46.67
2024-01-31T11:25:47.767Z,54.65
2024-01-31T11:28:17.240Z,49.88
2024-01-31T11:30:45.151Z,47.75
2024-01-31T11:33:12.834Z,48.58
2024-01-31T11:35:39.915Z,52.25
2024-01-31T11:38:09.836Z,49.13
2024-01-31T11:40:36.980Z,50.72
2024-01-31T11:43:05.816Z,52.55
2024-01-31T11:45:33.248Z,49.33
2024-01-31T11:48:00.545Z,48.25
2024-01-31T11:50:28.628Z,50.88
2024-01-31T11:52:56.858Z,48.90
2024-01-31T11:55:29.902Z,49.03
2024-01-31T11:57:57.395Z,54.75
2024-01-31T12:00:25.840Z,52.05
2024-01-31T12:02:56.057Z,56.50
2024-01-31T12:05:23.896Z,53.13
2024-01-31T12:07:58.546Z,54.83
2024-01-31T12:10:29.620Z,54.80
2024-01-31T12:13:00.723Z,54.28
2024-01-31T12:15:28.539Z,55.00
2024-01-31T12:17:56.048Z,55.70
2024-01-31T12:20:23.752Z,55.13
2024-01-31T12:22:51.017Z,56.95
2024-01-31T12:25:18.017Z,56.75
2024-01-31T12:27:45.222Z,55.00
2024-01-31T12:30:12.903Z,58.67
2024-01-31T12:32:40.035Z,57.72
2024-01-31T12:35:07.525Z,58.78
2024-01-31T12:37:36.171Z,56.80
2024-01-31T12:40:04.117Z,60.70
2024-01-31T12:42:31.720Z,57.60
2024-01-31T12:44:59.371Z,61.25
2024-01-31T12:47:28.612Z,63.55
2024-01-31T12:49:55.716Z,63.00
2024-01-31T12:52:26.181Z,59.30
2024-01-31T12:54:54.063Z,63.53
2024-01-31T12:57:21.985Z,67.63
2024-01-31T12:59:49.238Z,64.88
2024-01-31T13:02:16.382Z,65.97
2024-01-31T13:04:43.540Z,66.25
2024-01-31T13:07:11.452Z,67.15
2024-01-31T13:09:38.837Z,68.60
2024-01-31T13:12:09.866Z,69.78
2024-01-31T13:14:39.358Z,69.07
2024-01-31T13:17:06.602Z,69.20
2024-01-31T13:19:33.701Z,66.82
2024-01-31T13:22:03.568Z,74.55
2024-01-31T13:24:32.527Z,75.63
2024-01-31T13:26:59.610Z,68.35
2024-01-31T13:29:26.949Z,73.75
2024-01-31T13:31:54.064Z,71.30
2024-01-31T13:34:21.733Z,72.70
2024-01-31T13:36:49.071Z,69.10
2024-01-31T13:39:16.367Z,70.75
2024-01-31T13:41:43.517Z,65.80
2024-01-31T13:44:10.517Z,73.63
2024-01-31T13:46:41.198Z,68.22
2024-01-31T13:49:08.638Z,73.80
2024-01-31T13:51:36.985Z,66.35
2024-01-31T13:54:05.013Z,68.15
2024-01-31T13:56:32.153Z,69.00
2024-01-31T13:58:59.118Z,68.65
2024-01-31T14:01:27.018Z,71.05
2024-01-31T14:03:54.066Z,69.53
2024-01-31T14:06:21.292Z,67.50
2024-01-31T14:08:48.412Z,64.82
2024-01-31T14:11:19.229Z,67.35
2024-01-31T14:13:47.237Z,72.00
2024-01-31T14:16:15.775Z,67.05
2024-01-31T14:18:43.148Z,68.63
2024-01-31T14:21:15.874Z,64.93
2024-01-31T14:23:45.751Z,66.57
2024-01-31T14:26:14.632Z,64.88
2024-01-31T14:28:41.666Z,61.78
2024-01-31T14:31:10.054Z,59.75
2024-01-31T14:33:37.631Z,68.07
2024-01-31T14:36:05.402Z,66.07
2024-01-31T14:38:32.964Z,65.10
2024-01-31T14:41:01.944Z,61.35
2024-01-31T14:43:29.934Z,63.50
2024-01-31T14:45:56.946Z,64.10
2024-01-31T14:48:24.039Z,62.63
2024-01-31T14:50:51.191Z,62.92
2024-01-31T14:53:18.326Z,60.72
2024-01-31T14:55:45.274Z,63.35
2024-01-31T14:58:12.329Z,62.33
2024-01-31T15:00:39.404Z,62.10
2024-01-31T15:03:07.145Z,65.57
2024-01-31T15:05:34.388Z,62.08
2024-01-31T15:08:02.034Z,60.45
2024-01-31T15:10:28.951Z,66.72
2024-01-31T15:12:56.074Z,64.30
2024-01-31T15:15:23.275Z,62.13
2024-01-31T15:17:50.532Z,62.17
2024-01-31T15:20:17.870Z,63.50
2024-01-31T15:22:46.627Z,65.30
2024-01-31T15:25:13.936Z,66.65
2024-01-31T15:27:43.577Z,65.25
2024-01-31T15:30:11.188Z,66.50
2024-01-31T15:32:38.386Z,67.30
2024-01-31T15:35:06.046Z,67.18
2024-01-31T15:37:33.123Z,68.03
2024-01-31T15:40:00.378Z,64.50
2024-01-31T15:42:27.478Z,64.07
2024-01-31T15:44:56.668Z,64.00
2024-01-31T15:47:23.670Z,61.70
2024-01-31T15:49:50.750Z,66.57
2024-01-31T15:52:19.124Z,62.70
2024-01-31T15:54:46.420Z,62.55
2024-01-31T15:57:14.261Z,60.17
2024-01-31T15:59:41.199Z,65.40
2024-01-31T16:02:08.153Z,65.50
2024-01-31T16:04:35.205Z,61.15
2024-01-31T16:07:03.902Z,66.05
2024-01-31T16:09:31.152Z,70.97
2024-01-31T16:11:58.243Z,63.22
2024-01-31T16:14:25.887Z,65.05
2024-01-31T16:16:53.132Z,64.55
2024-01-31T16:19:20.839Z,69.75
2024-01-31T16:21:49.465Z,64.22
2024-01-31T16:24:18.659Z,69.05
2024-01-31T16:26:45.880Z,70.57
2024-01-31T16:29:12.975Z,73.32
2024-01-31T16:31:42.803Z,74.43
2024-01-31T16:34:10.212Z,73.65
2024-01-31T16:36:37.453Z,71.88
2024-01-31T16:39:04.649Z,71.22
2024-01-31T16:41:31.818Z,75.70
2024-01-31T16:43:58.814Z,69.05
2024-01-31T16:46:27.145Z,66.28
2024-01-31T16:48:55.814Z,64.75
2024-01-31T16:51:23.787Z,75.88
2024-01-31T16:53:51.352Z,70.75
2024-01-31T16:56:18.994Z,78.75
2024-01-31T16:58:45.944Z,74.70
2024-01-31T17:01:12.932Z,75.10
2024-01-31T17:03:41.390Z,77.05
2024-01-31T17:06:08.825Z,75.00
2024-01-31T17:08:37.721Z,79.97
2024-01-31T17:11:12.985Z,76.90
2024-01-31T17:13:39.885Z,92.10
2024-01-31T17:16:07.082Z,97.53
2024-01-31T17:18:35.339Z,92.93
2024-01-31T17:21:03.074Z,90.22
2024-01-31T17:23:32.588Z,93.30
2024-01-31T17:25:59.561Z,85.72
2024-01-31T17:28:26.795Z,88.97
2024-01-31T17:30:53.980Z,84.82
2024-01-31T17:33:21.765Z,83.75
2024-01-31T17:35:49.087Z,84.72
2024-01-31T17:38:16.512Z,86.30
2024-01-31T17:40:49.251Z,87.05
2024-01-31T17:43:17.489Z,86.93
2024-01-31T17:45:44.408Z,85.72
2024-01-31T17:48:11.602Z,89.60
2024-01-31T17:50:38.621Z,86.68
2024-01-31T17:53:06.007Z,88.43
2024-01-31T17:55:33.000Z,85.80
2024-01-31T17:57:59.949Z,93.45
2024-01-31T18:00:26.943Z,88.03
2024-01-31T18:02:54.113Z,88.22
2024-01-31T18:05:21.544Z,84.72
2024-01-31T18:07:48.866Z,88.68
2024-01-31T18:10:15.843Z,91.60
2024-01-31T18:12:43.999Z,92.90
2024-01-31T18:15:19.084Z,89.93
2024-01-31T18:17:49.098Z,92.88
2024-01-31T18:20:17.235Z,96.22
2024-01-31T18:22:45.337Z,94.07
2024-01-31T18:25:12.397Z,92.97
2024-01-31T18:27:41.522Z,93.25
2024-01-31T18:30:09.730Z,90.75
2024-01-31T18:32:37.062Z,85.43
2024-01-31T18:35:04.644Z,100.75
2024-01-31T18:37:31.618Z,95.95
2024-01-31T18:39:58.602Z,98.05
2024-01-31T18:42:25.612Z,106.75
2024-01-31T18:44:52.846Z,109.68
2024-01-31T18:47:20.146Z,107.95
2024-01-31T18:49:47.583Z,95.28
2024-01-31T18:52:14.553Z,98.00
2024-01-31T18:54:41.495Z,107.05
2024-01-31T18:57:08.657Z,107.25
2024-01-31T18:59:36.205Z,111.45
2024-01-31T19:02:04.221Z,106.13
2024-01-31T19:04:32.641Z,101.97
2024-01-31T19:07:00.172Z,98.63
2024-01-31T19:09:28.476Z,100.40
2024-01-31T19:11:55.598Z,105.05
2024-01-31T19:14:22.791Z,100.75
2024-01-31T19:16:50.891Z,106.80
2024-01-31T19:19:18.105Z,105.20
2024-01-31T19:21:45.546Z,101.60
2024-01-31T19:24:12.689Z,97.82
2024-01-31T19:26:39.806Z,103.50
2024-01-31T19:29:07.416Z,102.60
2024-01-31T19:31:34.688Z,99.55
2024-01-31T19:34:02.951Z,103.63
2024-01-31T19:36:30.664Z,103.03
2024-01-31T19:38:57.792Z,118.90
2024-01-31T19:41:27.459Z,124.47
2024-01-31T19:43:55.426Z,108.75
2024-01-31T19:46:24.159Z,119.20
2024-01-31T19:48:51.399Z,121.40
2024-01-31T19:51:19.736Z,110.72
2024-01-31T19:53:48.469Z,119.72
2024-01-31T19:56:15.467Z,112.65
2024-01-31T19:58:42.837Z,124.32
2024-01-31T20:01:10.058Z,129.45
2024-01-31T20:03:37.192Z,135.82
2024-01-31T20:06:04.521Z,130.18
2024-01-31T20:08:34.433Z,110.25
2024-01-31T20:11:02.346Z,115.13
2024-01-31T20:13:30.931Z,151.77
2024-01-31T20:15:57.956Z,159.27
2024-01-31T20:18:25.083Z,158.43
2024-01-31T20:20:54.021Z,142.68
2024-01-31T20:23:21.714Z,119.90
2024-01-31T20:25:49.444Z,122.18
2024-01-31T20:28:17.291Z,119.60
2024-01-31T20:30:44.308Z,125.22
2024-01-31T20:33:11.654Z,117.25
2024-01-31T20:35:38.893Z,107.80
2024-01-31T20:38:06.929Z,99.40
2024-01-31T20:40:33.886Z,99.10
2024-01-31T20:43:01.082Z,108.65
2024-01-31T20:45:29.839Z,112.43
2024-01-31T20:47:56.990Z,127.00
2024-01-31T20:50:24.200Z,114.75
2024-01-31T20:52:51.251Z,111.90
2024-01-31T20:55:21.318Z,113.38
2024-01-31T20:57:48.457Z,115.90
2024-01-31T21:00:16.421Z,124.32
2024-01-31T21:02:46.142Z,126.25
2024-01-31T21:05:13.226Z,113.65
2024-01-31T21:07:40.895Z,114.18
2024-01-31T21:10:12.081Z,122.70
2024-01-31T21:12:44.586Z,118.43
2024-01-31T21:15:12.461Z,121.10
2024-01-31T21:17:39.660Z,126.75
2024-01-31T21:20:09.994Z,128.38
2024-01-31T21:22:39.849Z,135.52
2024-01-31T21:25:07.908Z,129.90
2024-01-31T21:27:36.136Z,123.45
2024-01-31T21:30:03.945Z,126.13
2024-01-31T21:32:32.986Z,125.05
2024-01-31T21:35:00.266Z,127.28
2024-01-31T21:37:28.168Z,129.98
2024-01-31T21:39:55.257Z,122.93
2024-01-31T21:42:22.816Z,127.32
2024-01-31T21:44:49.857Z,121.35
2024-01-31T21:47:16.978Z,126.32
2024-01-31T21:49:51.882Z,121.95
2024-01-31T21:52:19.021Z,115.60
2024-01-31T21:54:45.925Z,109.80
2024-01-31T21:57:14.869Z,106.15
2024-01-31T21:59:42.454Z,106.07
2024-01-31T22:02:10.593Z,117.03
2024-01-31T22:04:37.727Z,123.70
2024-01-31T22:07:05.270Z,115.38
2024-01-31T22:09:32.823Z,133.57
2024-01-31T22:12:00.517Z,119.35
2024-01-31T22:14:28.430Z,115.57
2024-01-31T22:16:56.673Z,114.25
2024-01-31T22:19:23.916Z,103.07
2024-01-31T22:21:50.967Z,97.28
2024-01-31T22:24:17.903Z,87.70
2024-01-31T22:26:45.248Z,79.78
2024-01-31T22:29:12.252Z,80.40
2024-01-31T22:31:45.051Z,97.15
2024-01-31T22:34:12.617Z,93.63
2024-01-31T22:36:39.890Z,88.38
2024-01-31T22:39:07.041Z,81.45
2024-01-31T22:41:34.030Z,86.82
2024-01-31T22:44:06.202Z,79.97
2024-01-31T22:46:34.554Z,78.93
2024-01-31T22:49:01.582Z,72.78
2024-01-31T22:51:29.526Z,68.32
2024-01-31T22:53:57.316Z,68.65
2024-01-31T22:56:24.270Z,67.65
2024-01-31T22:58:51.200Z,61.78
2024-01-31T23:01:18.373Z,60.55
2024-01-31T23:03:45.555Z,59.10
2024-01-31T23:06:16.387Z,56.83
2024-01-31T23:08:45.817Z,53.05
2024-01-31T23:11:13.002Z,53.70
2024-01-31T23:13:40.043Z,54.58
2024-01-31T23:16:07.370Z,50.35
2024-01-31T23:18:35.211Z,56.78
2024-01-31T23:21:06.604Z,61.42
2024-01-31T23:23:33.717Z,57.38
2024-01-31T23:26:00.695Z,61.00
2024-01-31T23:28:27.996Z,54.55
2024-01-31T23:30:54.968Z,53.95
2024-01-31T23:33:22.276Z,48.00
2024-01-31T23:35:49.404Z,46.17
2024-01-31T23:38:16.594Z,44.45
2024-01-31T23:40:43.848Z,46.53
2024-01-31T23:43:11.060Z,46.92
2024-01-31T23:45:38.082Z,50.28
2024-01-31T23:48:05.774Z,55.03
2024-01-31T23:50:32.832Z,53.28
2024-01-31T23:53:00.003Z,54.65
2024-01-31T23:55:27.469Z,55.95
2024-01-31T23:57:55.331Z,59.35
